Terminal Aerodrome Forecast
Issued by NWS

Home | Current Version | Previous Version | Text Only | Print | Product List | Glossary On
Versions: 1 2 3 4 5 6 7 8 9 10 11 12 13 14 15
000
FTUS46 KSGX 220500
TAFSNA
TAF
KSNA 220520Z 2206/2306 VRB04KT P6SM SKC
     FM220800 VRB04KT P6SM OVC015
     FM221700 VRB04KT P6SM FEW015
     FM222000 22008KT P6SM SKC
     FM230100 VRB04KT P6SM SKC=

USA.gov is the U.S. government's official web portal to all federal, state and local government web resources and services.